Time;durP1;ratioP1;P1;durP2;ratioP2;P2;SDS_P1;SDS_P2;PMS_P1;PMS_P2;Temp;Humidity;BMP_temperature;BMP_pressure;BME280_temperature;BME280_humidity;BME280_pressure;Samples;Min_cycle;Max_cycle;Signal;HPM_P1;HPM_P2
2024/02/26 00:02:17;;;;;;;4.82;4.32;;;19.20;53.30;;;;;;5030523;28;20033;-51
2024/02/26 00:04:43;;;;;;;5.43;4.22;;;19.20;53.30;;;;;;5036862;28;20055;-51
2024/02/26 00:07:08;;;;;;;4.53;4.13;;;19.20;53.20;;;;;;5033864;28;20100;-49
2024/02/26 00:09:37;;;;;;;4.72;3.72;;;19.20;53.30;;;;;;5038102;28;20071;-51
2024/02/26 00:12:03;;;;;;;4.30;3.90;;;19.20;53.30;;;;;;5033006;28;20075;-49
2024/02/26 00:14:29;;;;;;;5.30;4.45;;;19.20;53.30;;;;;;5035415;28;20037;-49
2024/02/26 00:16:55;;;;;;;4.82;4.30;;;19.20;53.20;;;;;;5031157;28;20033;-51
2024/02/26 00:19:20;;;;;;;5.32;4.82;;;19.20;53.30;;;;;;5039100;28;20034;-51
2024/02/26 00:21:46;;;;;;;4.28;3.88;;;19.20;53.30;;;;;;5033765;28;20588;-50
2024/02/26 00:24:11;;;;;;;4.15;3.67;;;19.20;53.20;;;;;;5035039;28;20036;-51
2024/02/26 00:26:37;;;;;;;4.15;3.80;;;19.20;53.30;;;;;;5034863;28;20033;-50
2024/02/26 00:29:03;;;;;;;5.00;4.28;;;19.20;53.20;;;;;;5023201;28;20482;-50
2024/02/26 00:31:28;;;;;;;4.45;4.05;;;19.20;53.40;;;;;;5039205;28;20079;-50
2024/02/26 00:33:53;;;;;;;4.65;4.25;;;19.20;53.40;;;;;;5035243;28;20113;-50
2024/02/26 00:36:19;;;;;;;4.68;4.22;;;19.20;53.80;;;;;;5034545;28;20032;-50
2024/02/26 00:38:50;;;;;;;4.38;3.97;;;19.20;53.20;;;;;;5036279;28;20052;-50
2024/02/26 00:41:19;;;;;;;4.82;4.32;;;19.20;53.20;;;;;;5030813;28;20047;-49
2024/02/26 00:43:44;;;;;;;4.75;4.30;;;19.20;53.20;;;;;;5041331;28;20147;-50
2024/02/26 00:46:10;;;;;;;4.57;4.18;;;19.20;53.10;;;;;;5032185;28;20121;-53
2024/02/26 00:48:36;;;;;;;5.03;4.53;;;19.20;53.20;;;;;;5039128;28;20025;-49
2024/02/26 00:51:05;;;;;;;4.78;4.10;;;19.20;53.20;;;;;;5034257;28;20029;-57
2024/02/26 00:53:30;;;;;;;4.90;4.40;;;19.20;53.20;;;;;;5037028;28;20038;-51
2024/02/26 00:55:56;;;;;;;4.97;4.32;;;19.20;53.20;;;;;;5033059;28;20114;-49
2024/02/26 00:58:21;;;;;;;4.75;4.35;;;19.20;53.10;;;;;;5033640;28;20108;-48
2024/02/26 01:00:47;;;;;;;4.60;4.20;;;19.20;53.10;;;;;;5035584;28;20024;-49
2024/02/26 01:03:12;;;;;;;5.10;4.60;;;19.20;53.00;;;;;;5033397;28;20057;-52
2024/02/26 01:05:38;;;;;;;4.82;4.32;;;19.10;53.00;;;;;;5033439;28;20086;-49
2024/02/26 01:08:04;;;;;;;4.63;4.22;;;19.10;53.00;;;;;;5031784;28;20506;-49
2024/02/26 01:10:29;;;;;;;5.05;4.28;;;19.10;53.10;;;;;;5039773;28;20045;-50
2024/02/26 01:12:55;;;;;;;5.18;4.20;;;19.10;53.00;;;;;;5037337;28;20471;-50
2024/02/26 01:15:23;;;;;;;6.15;4.47;;;19.10;53.10;;;;;;5032496;28;20055;-50
2024/02/26 01:17:52;;;;;;;5.00;4.50;;;19.00;53.10;;;;;;5033656;28;20578;-50
2024/02/26 01:20:17;;;;;;;4.65;4.25;;;19.00;53.20;;;;;;5030364;28;20443;-50
2024/02/26 01:22:44;;;;;;;4.72;4.18;;;19.00;53.20;;;;;;5035052;28;20112;-49
2024/02/26 01:25:09;;;;;;;4.18;3.78;;;19.00;53.30;;;;;;5035019;28;20029;-49
2024/02/26 01:27:40;;;;;;;4.50;4.10;;;18.90;53.40;;;;;;5035006;28;20444;-51
2024/02/26 01:30:06;;;;;;;4.90;4.50;;;18.90;53.20;;;;;;5030180;28;20036;-51
2024/02/26 01:32:32;;;;;;;4.97;4.40;;;18.90;53.40;;;;;;5038267;28;20029;-51
2024/02/26 01:34:58;;;;;;;5.35;4.68;;;18.80;53.40;;;;;;5034143;28;20036;-50
2024/02/26 01:37:23;;;;;;;4.35;3.95;;;18.80;53.40;;;;;;5033363;28;20039;-55
2024/02/26 01:39:49;;;;;;;6.90;5.30;;;18.90;53.30;;;;;;5036350;28;20028;-51
2024/02/26 01:42:15;;;;;;;4.72;4.32;;;18.80;53.30;;;;;;5034127;28;20505;-49
2024/02/26 01:44:40;;;;;;;4.53;4.13;;;18.90;54.00;;;;;;5033704;28;20040;-51
2024/02/26 01:47:09;;;;;;;4.47;4.07;;;18.80;53.30;;;;;;5032627;28;20592;-50
2024/02/26 01:49:36;;;;;;;6.05;4.03;;;18.90;53.50;;;;;;5036347;28;20390;-49
2024/02/26 01:52:04;;;;;;;4.65;4.05;;;18.90;53.40;;;;;;5016507;28;20498;-50
2024/02/26 01:54:30;;;;;;;4.70;4.20;;;18.90;53.40;;;;;;5024054;28;20029;-50
2024/02/26 01:56:57;;;;;;;4.47;4.07;;;18.80;53.30;;;;;;5032049;28;20665;-49
2024/02/26 01:59:23;;;;;;;4.55;4.13;;;18.90;53.50;;;;;;5026962;28;20837;-51
2024/02/26 02:01:54;;;;;;;5.13;4.45;;;18.90;53.50;;;;;;5030502;28;20108;-49
2024/02/26 02:04:21;;;;;;;5.63;3.97;;;18.90;53.40;;;;;;5029986;28;20043;-49
2024/02/26 02:06:47;;;;;;;4.78;3.22;;;19.00;53.40;;;;;;5029398;28;20045;-49
2024/02/26 02:09:12;;;;;;;6.13;4.15;;;19.00;53.40;;;;;;5025349;28;20083;-51
2024/02/26 02:11:38;;;;;;;4.43;4.03;;;19.00;53.30;;;;;;5027065;28;20029;-50
2024/02/26 02:14:03;;;;;;;5.82;4.18;;;19.00;53.30;;;;;;5028299;28;20049;-49
2024/02/26 02:16:29;;;;;;;4.32;3.92;;;19.00;53.30;;;;;;5030691;28;20622;-47
2024/02/26 02:18:55;;;;;;;4.63;4.10;;;19.00;53.30;;;;;;5010234;28;20032;-47
2024/02/26 02:21:20;;;;;;;4.35;3.95;;;19.10;53.30;;;;;;5032990;28;20029;-51
2024/02/26 02:23:46;;;;;;;3.88;3.50;;;19.10;53.10;;;;;;5035777;28;20041;-49
2024/02/26 02:26:13;;;;;;;4.65;4.25;;;19.10;53.20;;;;;;5032821;28;20031;-49
2024/02/26 02:28:40;;;;;;;4.15;3.75;;;19.10;53.10;;;;;;5034370;28;20487;-49
2024/02/26 02:31:06;;;;;;;4.05;3.70;;;19.10;53.20;;;;;;5033067;28;20036;-50
2024/02/26 02:33:32;;;;;;;5.57;3.90;;;19.10;53.00;;;;;;5034846;28;20397;-51
2024/02/26 02:35:58;;;;;;;3.60;3.28;;;19.10;53.10;;;;;;5032518;28;20710;-51
2024/02/26 02:38:25;;;;;;;4.35;3.95;;;19.10;53.20;;;;;;5027688;28;20045;-50
2024/02/26 02:40:51;;;;;;;4.50;3.75;;;19.10;53.10;;;;;;5033976;28;20029;-48
2024/02/26 02:43:17;;;;;;;4.15;3.75;;;19.10;53.20;;;;;;5027474;28;20056;-49
2024/02/26 02:45:42;;;;;;;4.60;3.75;;;19.20;53.20;;;;;;5028046;28;20506;-51
2024/02/26 02:48:08;;;;;;;4.47;4.00;;;19.20;53.20;;;;;;5028344;28;20483;-51
2024/02/26 02:50:33;;;;;;;4.00;3.60;;;19.20;53.10;;;;;;5029276;28;20025;-49
2024/02/26 02:52:59;;;;;;;4.53;3.70;;;19.20;53.00;;;;;;5027754;28;20029;-52
2024/02/26 02:55:25;;;;;;;4.82;3.75;;;19.20;53.20;;;;;;5030947;28;20075;-50
2024/02/26 02:57:50;;;;;;;4.20;3.78;;;19.20;53.10;;;;;;5026751;28;20025;-49
2024/02/26 03:00:16;;;;;;;4.00;3.60;;;19.20;53.00;;;;;;5032253;28;20021;-47
2024/02/26 03:02:42;;;;;;;3.40;3.10;;;19.20;53.20;;;;;;5025335;28;20574;-51
2024/02/26 03:05:08;;;;;;;4.53;3.60;;;19.20;53.60;;;;;;5013820;28;20033;-51
2024/02/26 03:07:34;;;;;;;4.20;3.75;;;19.20;53.10;;;;;;5025808;28;20418;-50
2024/02/26 03:09:59;;;;;;;4.53;3.78;;;19.20;53.10;;;;;;5016413;28;20417;-50
2024/02/26 03:12:25;;;;;;;4.22;3.83;;;19.20;53.10;;;;;;5023979;28;20542;-51
2024/02/26 03:14:51;;;;;;;5.18;3.60;;;19.20;53.10;;;;;;5030390;28;20033;-51
2024/02/26 03:17:16;;;;;;;3.75;3.45;;;19.20;53.10;;;;;;5019685;28;20018;-49
2024/02/26 03:19:46;;;;;;;3.78;3.42;;;19.10;53.00;;;;;;5024407;28;20029;-49
2024/02/26 03:22:12;;;;;;;3.88;3.58;;;19.10;53.20;;;;;;5022582;28;20030;-49
2024/02/26 03:24:37;;;;;;;4.03;3.70;;;19.10;53.20;;;;;;5028754;28;20198;-49
2024/02/26 03:27:04;;;;;;;3.80;3.50;;;19.10;53.30;;;;;;5025073;28;20053;-49
2024/02/26 03:29:30;;;;;;;4.35;3.90;;;19.10;53.20;;;;;;5029031;28;20037;-49
2024/02/26 03:31:56;;;;;;;3.60;3.30;;;19.10;53.20;;;;;;5017621;28;20111;-49
2024/02/26 03:34:21;;;;;;;3.45;2.70;;;19.10;53.20;;;;;;5032991;28;20116;-50
2024/02/26 03:36:47;;;;;;;3.45;3.10;;;19.00;53.30;;;;;;5038484;28;20398;-50
2024/02/26 03:39:12;;;;;;;3.75;3.38;;;19.00;53.30;;;;;;5037372;28;20022;-50
2024/02/26 03:41:38;;;;;;;3.35;3.05;;;19.00;53.40;;;;;;5035136;28;20359;-49
2024/02/26 03:44:04;;;;;;;3.60;3.30;;;19.00;53.30;;;;;;5037902;28;20037;-48
2024/02/26 03:46:30;;;;;;;4.18;3.47;;;19.00;53.30;;;;;;5033246;28;20556;-48
2024/02/26 03:48:55;;;;;;;3.58;3.28;;;19.00;53.40;;;;;;5034902;28;20042;-51
2024/02/26 03:51:21;;;;;;;3.95;3.55;;;19.00;53.30;;;;;;5030084;28;20100;-48
2024/02/26 03:53:46;;;;;;;4.00;3.40;;;19.00;53.60;;;;;;5033768;28;20034;-51
2024/02/26 03:56:15;;;;;;;3.50;3.20;;;19.00;53.40;;;;;;5036424;28;20482;-58
2024/02/26 03:58:40;;;;;;;4.30;3.90;;;18.90;53.30;;;;;;5032490;28;20090;-50
2024/02/26 04:01:09;;;;;;;3.60;3.28;;;18.90;53.50;;;;;;5027937;28;20033;-50
2024/02/26 04:03:35;;;;;;;3.78;3.47;;;18.90;53.30;;;;;;5023050;28;20098;-51
2024/02/26 04:06:00;;;;;;;3.40;3.10;;;18.90;53.40;;;;;;5024825;28;20037;-49
2024/02/26 04:08:26;;;;;;;4.03;3.22;;;18.90;53.40;;;;;;5024995;28;20041;-51
2024/02/26 04:10:51;;;;;;;4.53;3.20;;;18.90;53.30;;;;;;5029567;28;20037;-51
2024/02/26 04:13:18;;;;;;;3.67;3.38;;;18.90;53.30;;;;;;5022646;28;20029;-49
2024/02/26 04:15:43;;;;;;;4.00;3.13;;;18.90;53.00;;;;;;5025446;28;20040;-49
2024/02/26 04:18:08;;;;;;;3.47;3.17;;;18.90;53.20;;;;;;5004655;28;20033;-50
2024/02/26 04:20:34;;;;;;;3.20;2.90;;;18.90;53.00;;;;;;5029902;28;20390;-51
2024/02/26 04:23:00;;;;;;;3.45;3.15;;;18.90;53.20;;;;;;5029416;28;20029;-50
2024/02/26 04:25:25;;;;;;;4.60;3.30;;;18.90;53.00;;;;;;5029800;28;20479;-49
2024/02/26 04:27:51;;;;;;;4.18;3.70;;;18.90;53.10;;;;;;5028775;28;20033;-49
2024/02/26 04:30:17;;;;;;;4.00;3.17;;;18.90;53.20;;;;;;5031601;28;20040;-51
2024/02/26 04:32:43;;;;;;;3.63;3.00;;;18.90;53.10;;;;;;5021089;28;20025;-49
2024/02/26 04:35:09;;;;;;;3.22;2.92;;;18.90;53.10;;;;;;5031187;28;20079;-50
2024/02/26 04:37:34;;;;;;;3.58;3.28;;;18.90;53.00;;;;;;5031241;28;20374;-51
2024/02/26 04:40:01;;;;;;;3.92;3.47;;;18.90;53.10;;;;;;5032299;28;20021;-54
2024/02/26 04:42:27;;;;;;;4.05;3.40;;;18.90;53.20;;;;;;5029105;28;20428;-51
2024/02/26 04:44:53;;;;;;;4.40;3.35;;;18.90;53.20;;;;;;5014294;28;20036;-49
2024/02/26 04:47:22;;;;;;;3.40;3.10;;;18.80;53.20;;;;;;5029770;28;20037;-48
2024/02/26 04:49:50;;;;;;;4.35;3.65;;;18.80;53.20;;;;;;5035619;28;20518;-55
2024/02/26 04:52:16;;;;;;;4.07;3.63;;;18.80;53.10;;;;;;5030689;28;20033;-55
2024/02/26 04:54:41;;;;;;;3.63;3.22;;;18.80;53.00;;;;;;5033970;28;20051;-53
2024/02/26 04:57:07;;;;;;;3.47;3.17;;;18.80;53.20;;;;;;5026541;28;20029;-48
2024/02/26 04:59:32;;;;;;;4.35;3.35;;;18.80;53.20;;;;;;5033548;28;20036;-49
2024/02/26 05:01:58;;;;;;;4.10;3.70;;;18.80;53.10;;;;;;5029930;28;20032;-50
2024/02/26 05:04:23;;;;;;;3.45;3.10;;;18.80;53.00;;;;;;5030054;28;20308;-47
2024/02/26 05:06:49;;;;;;;3.45;3.15;;;18.80;53.00;;;;;;5031902;28;20029;-53
2024/02/26 05:09:14;;;;;;;4.50;3.20;;;18.90;53.00;;;;;;5033577;28;20364;-49
2024/02/26 05:11:40;;;;;;;3.92;3.10;;;18.90;53.00;;;;;;5030419;28;20041;-50
2024/02/26 05:14:06;;;;;;;3.90;3.50;;;18.90;52.80;;;;;;5034931;28;20033;-50
2024/02/26 05:16:31;;;;;;;5.68;3.67;;;18.90;52.70;;;;;;5030274;28;20037;-51
2024/02/26 05:18:57;;;;;;;4.45;3.50;;;18.90;52.50;;;;;;5033126;28;20029;-50
2024/02/26 05:21:23;;;;;;;4.70;3.40;;;18.90;52.50;;;;;;5012200;28;20037;-48
2024/02/26 05:23:48;;;;;;;4.75;3.40;;;18.90;52.60;;;;;;5034725;28;20029;-49
2024/02/26 05:26:21;;;;;;;4.28;3.42;;;19.00;52.30;;;;;;5028932;28;20064;-50
2024/02/26 05:28:47;;;;;;;3.97;3.15;;;19.00;52.50;;;;;;5032660;28;20393;-50
2024/02/26 05:31:16;;;;;;;4.70;3.90;;;19.00;52.40;;;;;;5032489;28;20116;-50
2024/02/26 05:33:41;;;;;;;4.97;3.28;;;19.00;52.20;;;;;;5022682;28;20037;-50
2024/02/26 05:36:07;;;;;;;4.50;3.35;;;19.00;52.40;;;;;;5029910;28;20096;-51
2024/02/26 05:38:32;;;;;;;5.60;3.70;;;19.00;52.10;;;;;;5032897;28;20060;-49
2024/02/26 05:41:01;;;;;;;4.53;3.63;;;19.00;52.10;;;;;;5035444;28;20717;-50
2024/02/26 05:43:27;;;;;;;4.10;3.70;;;19.00;52.30;;;;;;5015063;28;20033;-50
2024/02/26 05:45:53;;;;;;;4.70;3.40;;;19.10;52.20;;;;;;5031687;28;20739;-51
2024/02/26 05:48:19;;;;;;;3.85;3.38;;;19.10;52.00;;;;;;5032250;28;20025;-50
2024/02/26 05:50:45;;;;;;;4.22;3.80;;;19.10;52.10;;;;;;5028400;28;20033;-54
2024/02/26 05:53:11;;;;;;;5.15;3.55;;;19.10;52.10;;;;;;5030567;28;20059;-49
2024/02/26 05:55:37;;;;;;;3.67;3.20;;;19.10;52.10;;;;;;5032648;28;20040;-52
2024/02/26 05:58:03;;;;;;;3.40;3.08;;;19.10;52.00;;;;;;5033139;28;20029;-51
2024/02/26 06:00:28;;;;;;;4.85;3.40;;;19.10;51.80;;;;;;5030601;28;20033;-49
2024/02/26 06:02:54;;;;;;;4.20;3.80;;;19.10;51.90;;;;;;5029220;28;20033;-52
2024/02/26 06:05:19;;;;;;;4.20;3.60;;;19.10;51.90;;;;;;5034618;28;20101;-49
2024/02/26 06:07:45;;;;;;;5.07;3.50;;;19.20;51.90;;;;;;5031573;28;20412;-51
2024/02/26 06:10:10;;;;;;;3.63;3.22;;;19.20;52.00;;;;;;5037316;28;20031;-50
2024/02/26 06:12:36;;;;;;;3.90;3.10;;;19.10;52.00;;;;;;5035331;28;20029;-51
2024/02/26 06:15:02;;;;;;;3.97;3.35;;;19.20;52.40;;;;;;5032866;28;20052;-50
2024/02/26 06:17:28;;;;;;;3.47;3.17;;;19.20;52.60;;;;;;5032543;28;20041;-50
2024/02/26 06:19:53;;;;;;;4.28;3.28;;;19.20;52.50;;;;;;5037242;28;20769;-50
2024/02/26 06:22:19;;;;;;;3.95;3.30;;;19.20;52.60;;;;;;5030521;28;20029;-51
2024/02/26 06:24:44;;;;;;;3.75;3.08;;;19.10;52.60;;;;;;5032426;28;20033;-50
2024/02/26 06:27:10;;;;;;;3.92;2.85;;;19.10;52.70;;;;;;5036776;28;20120;-49
2024/02/26 06:29:35;;;;;;;4.68;2.90;;;19.20;52.80;;;;;;5034349;28;20037;-51
2024/02/26 06:32:01;;;;;;;3.50;3.08;;;19.20;52.90;;;;;;5029502;28;20037;-51
2024/02/26 06:34:26;;;;;;;3.40;2.97;;;19.10;52.80;;;;;;5031692;28;20030;-49
2024/02/26 06:36:52;;;;;;;4.55;3.28;;;19.20;52.80;;;;;;5028549;28;20027;-48
2024/02/26 06:39:18;;;;;;;5.45;3.63;;;19.20;52.90;;;;;;5034386;28;20880;-51
2024/02/26 06:41:46;;;;;;;5.75;3.95;;;19.20;52.70;;;;;;5031642;28;20148;-57
2024/02/26 06:44:12;;;;;;;7.07;3.55;;;19.20;52.80;;;;;;5014124;28;20394;-50
2024/02/26 06:46:38;;;;;;;5.13;3.97;;;19.20;53.00;;;;;;5037949;28;20732;-50
2024/02/26 06:49:03;;;;;;;6.25;3.83;;;19.20;53.10;;;;;;5033164;28;20037;-49
2024/02/26 06:51:29;;;;;;;6.93;4.00;;;19.10;53.10;;;;;;5034744;28;20037;-51
2024/02/26 06:53:54;;;;;;;6.55;4.35;;;19.20;53.20;;;;;;5035894;28;20404;-48
2024/02/26 06:56:20;;;;;;;6.18;3.72;;;19.20;53.30;;;;;;5032117;28;20018;-51
2024/02/26 06:58:45;;;;;;;5.78;3.47;;;19.10;53.20;;;;;;5017492;28;20517;-50
2024/02/26 07:01:12;;;;;;;5.68;3.65;;;19.20;53.30;;;;;;5030456;28;20033;-49
2024/02/26 07:03:40;;;;;;;8.60;3.80;;;19.20;53.30;;;;;;5035606;28;20025;-51
2024/02/26 07:06:06;;;;;;;5.15;3.92;;;19.20;53.30;;;;;;5032240;28;20112;-50
2024/02/26 07:08:32;;;;;;;6.95;3.33;;;19.20;53.30;;;;;;5037059;28;20059;-51
2024/02/26 07:10:58;;;;;;;5.70;4.03;;;19.20;53.30;;;;;;5029142;28;20060;-50
2024/02/26 07:13:23;;;;;;;5.93;3.75;;;19.20;53.30;;;;;;5034494;28;20030;-51
2024/02/26 07:15:49;;;;;;;6.97;3.75;;;19.20;53.20;;;;;;5031232;28;20032;-48
2024/02/26 07:18:14;;;;;;;5.95;3.63;;;19.20;53.10;;;;;;5033379;28;20142;-58
2024/02/26 07:20:40;;;;;;;8.23;4.35;;;19.20;53.10;;;;;;5033796;28;20033;-51
2024/02/26 07:23:06;;;;;;;6.07;3.85;;;19.20;53.10;;;;;;5035353;28;20060;-51
2024/02/26 07:25:32;;;;;;;6.65;4.03;;;19.20;53.10;;;;;;5021889;28;20075;-52
2024/02/26 07:27:57;;;;;;;5.43;3.60;;;19.20;53.10;;;;;;5033400;28;20041;-50
2024/02/26 07:30:24;;;;;;;4.63;3.67;;;19.20;53.10;;;;;;5032503;28;20477;-48
2024/02/26 07:32:50;;;;;;;7.68;3.63;;;19.20;53.20;;;;;;5032745;28;20096;-49
2024/02/26 07:35:17;;;;;;;5.38;3.70;;;19.20;53.20;;;;;;5032444;28;20475;-50
2024/02/26 07:37:43;;;;;;;5.43;4.22;;;19.30;53.20;;;;;;5031354;28;20546;-50
2024/02/26 07:40:09;;;;;;;7.72;3.78;;;19.20;52.90;;;;;;5020618;28;20108;-50
2024/02/26 07:42:34;;;;;;;4.05;3.65;;;19.30;53.10;;;;;;5037103;28;20441;-49
2024/02/26 07:45:00;;;;;;;8.95;3.85;;;19.20;53.00;;;;;;5022072;28;20085;-49
2024/02/26 07:47:25;;;;;;;9.65;4.10;;;19.30;53.10;;;;;;5034042;28;20049;-52
2024/02/26 07:49:51;;;;;;;6.93;4.05;;;19.20;53.10;;;;;;5033896;28;20459;-54
2024/02/26 07:52:16;;;;;;;8.45;3.97;;;19.30;53.10;;;;;;5033151;28;20030;-51
2024/02/26 07:54:42;;;;;;;6.32;3.42;;;19.30;53.10;;;;;;5022018;28;20047;-51
2024/02/26 07:57:07;;;;;;;6.00;3.80;;;19.30;53.10;;;;;;5034429;28;20044;-51
2024/02/26 07:59:33;;;;;;;6.28;3.55;;;19.30;53.10;;;;;;5033486;28;20087;-53
2024/02/26 08:01:59;;;;;;;5.65;3.28;;;19.30;53.10;;;;;;5035389;28;20151;-50
2024/02/26 08:04:26;;;;;;;8.60;4.50;;;19.30;52.80;;;;;;5033318;28;20053;-50
2024/02/26 08:06:51;;;;;;;8.23;4.70;;;19.40;52.90;;;;;;5032760;28;20375;-52
2024/02/26 08:09:17;;;;;;;10.77;5.05;;;19.40;53.30;;;;;;5028566;28;20031;-49
2024/02/26 08:11:42;;;;;;;10.82;5.57;;;19.40;53.50;;;;;;5025951;28;20049;-52
2024/02/26 08:14:08;;;;;;;10.98;6.40;;;19.40;53.50;;;;;;5021537;28;20033;-50
2024/02/26 08:16:33;;;;;;;13.63;6.65;;;19.40;53.70;;;;;;5023470;28;20834;-52
2024/02/26 08:18:59;;;;;;;12.30;6.13;;;19.40;53.60;;;;;;5017198;28;20045;-51
2024/02/26 08:21:24;;;;;;;13.75;5.70;;;19.40;53.70;;;;;;5024941;28;20582;-49
2024/02/26 08:23:50;;;;;;;9.18;5.28;;;19.40;53.80;;;;;;5026383;28;20041;-51
2024/02/26 08:26:15;;;;;;;13.50;6.35;;;19.30;53.80;;;;;;5023585;28;20585;-56
2024/02/26 08:28:41;;;;;;;10.68;5.82;;;19.30;53.90;;;;;;5023291;28;20124;-51
2024/02/26 08:31:07;;;;;;;10.93;5.80;;;19.30;53.90;;;;;;5023522;28;20044;-48
2024/02/26 08:33:33;;;;;;;12.45;5.93;;;19.20;53.90;;;;;;5017165;28;20124;-48
2024/02/26 08:35:59;;;;;;;9.10;5.45;;;19.20;54.00;;;;;;5002167;28;20036;-53
2024/02/26 08:38:25;;;;;;;10.40;5.50;;;19.20;54.00;;;;;;5019489;28;20402;-57
2024/02/26 08:40:50;;;;;;;9.27;5.63;;;19.20;54.00;;;;;;5023327;28;20645;-57
2024/02/26 08:43:16;;;;;;;7.57;5.35;;;19.20;54.00;;;;;;5019237;28;20032;-55
2024/02/26 08:45:41;;;;;;;9.70;5.57;;;19.20;54.00;;;;;;5025882;28;20111;-53
2024/02/26 08:48:07;;;;;;;8.75;5.13;;;19.10;54.00;;;;;;5017914;28;20087;-48
2024/02/26 08:50:33;;;;;;;8.98;5.40;;;19.10;54.00;;;;;;5024585;28;20037;-50
2024/02/26 08:53:00;;;;;;;7.25;5.05;;;19.10;54.10;;;;;;5030945;28;20073;-52
2024/02/26 08:55:26;;;;;;;8.05;4.82;;;19.10;54.10;;;;;;5014776;28;20043;-52
2024/02/26 08:57:52;;;;;;;10.00;5.03;;;19.10;54.00;;;;;;5023756;28;20281;-53
2024/02/26 09:00:20;;;;;;;9.07;4.45;;;19.10;53.90;;;;;;5026891;28;20034;-46
2024/02/26 09:02:46;;;;;;;8.63;5.25;;;19.10;53.80;;;;;;4994578;28;20162;-51
2024/02/26 09:05:12;;;;;;;8.43;4.70;;;19.10;53.80;;;;;;5020458;28;20166;-52
2024/02/26 09:07:37;;;;;;;7.43;4.32;;;19.10;53.80;;;;;;5020122;28;20072;-56
2024/02/26 09:10:04;;;;;;;7.60;4.28;;;19.10;53.70;;;;;;5021195;28;20053;-54
2024/02/26 09:12:30;;;;;;;5.00;3.83;;;19.10;53.70;;;;;;5019150;28;20041;-53
2024/02/26 09:14:57;;;;;;;6.70;3.92;;;19.10;53.70;;;;;;5024672;28;20693;-48
2024/02/26 09:17:22;;;;;;;7.55;3.85;;;19.00;53.70;;;;;;5025651;28;20025;-50
2024/02/26 09:19:48;;;;;;;9.68;4.82;;;19.10;53.80;;;;;;5030490;28;20036;-53
2024/02/26 09:22:14;;;;;;;6.82;3.70;;;19.10;53.80;;;;;;5032666;28;20628;-55
2024/02/26 09:24:39;;;;;;;5.00;3.72;;;19.00;53.70;;;;;;5017216;28;20039;-48
2024/02/26 09:27:05;;;;;;;6.55;4.55;;;19.10;53.70;;;;;;5029499;28;20033;-51
2024/02/26 09:29:30;;;;;;;6.00;3.53;;;19.10;53.70;;;;;;5027349;28;20041;-54
2024/02/26 09:31:56;;;;;;;8.68;3.55;;;19.10;53.70;;;;;;5031221;28;20025;-47
2024/02/26 09:34:21;;;;;;;6.47;3.80;;;19.10;53.70;;;;;;5020932;28;20618;-47
2024/02/26 09:36:47;;;;;;;5.32;3.90;;;19.10;53.70;;;;;;5028021;28;20482;-56
2024/02/26 09:39:14;;;;;;;5.43;3.60;;;19.10;53.70;;;;;;5028365;28;20094;-51
2024/02/26 09:41:40;;;;;;;5.10;3.85;;;19.10;53.70;;;;;;5031177;28;20086;-49
2024/02/26 09:44:07;;;;;;;5.07;3.55;;;19.10;53.80;;;;;;5031737;28;20042;-51
2024/02/26 09:46:33;;;;;;;7.13;3.63;;;19.10;53.80;;;;;;5038477;28;20122;-48
2024/02/26 09:48:58;;;;;;;5.30;3.45;;;19.10;53.80;;;;;;5033137;28;20326;-53
2024/02/26 09:51:25;;;;;;;5.25;3.03;;;19.10;53.90;;;;;;5034547;28;20033;-50
2024/02/26 09:53:52;;;;;;;4.25;3.08;;;19.10;53.90;;;;;;4990590;28;20075;-51
2024/02/26 09:56:18;;;;;;;9.05;3.60;;;19.10;54.00;;;;;;4972041;28;20033;-50
2024/02/26 09:58:47;;;;;;;4.18;3.30;;;19.10;54.10;;;;;;5019204;28;20537;-51
2024/02/26 10:01:15;;;;;;;4.78;3.05;;;19.10;54.10;;;;;;5019268;28;20065;-50
2024/02/26 10:03:44;;;;;;;5.03;3.47;;;19.10;54.10;;;;;;5015196;28;20052;-56
2024/02/26 10:06:10;;;;;;;4.40;3.25;;;19.10;54.10;;;;;;5022875;28;20048;-52
2024/02/26 10:08:36;;;;;;;4.32;2.72;;;19.10;54.20;;;;;;5016928;28;20556;-54
2024/02/26 10:11:03;;;;;;;6.10;3.35;;;19.10;54.30;;;;;;5018464;28;20087;-57
2024/02/26 10:13:29;;;;;;;3.22;2.70;;;19.10;54.30;;;;;;5019961;28;20036;-56
2024/02/26 10:15:54;;;;;;;4.10;3.35;;;19.10;54.30;;;;;;5024984;28;20044;-50
2024/02/26 10:18:22;;;;;;;5.82;3.45;;;19.10;54.30;;;;;;5029606;28;20029;-50
2024/02/26 10:21:04;;;;;;;4.78;3.00;;;19.10;54.30;;;;;;5034910;28;20106;-52
2024/02/26 10:23:29;;;;;;;4.95;3.00;;;19.10;54.30;;;;;;5030762;28;20037;-52
2024/02/26 10:25:55;;;;;;;4.32;2.80;;;19.10;54.90;;;;;;5032457;28;20036;-53
2024/02/26 10:28:22;;;;;;;5.35;2.75;;;19.10;54.20;;;;;;5037181;28;20025;-48
2024/02/26 10:30:47;;;;;;;4.53;2.63;;;19.10;54.20;;;;;;5035678;23;21818;-50
2024/02/26 10:33:14;;;;;;;6.05;3.08;;;19.20;54.20;;;;;;5031248;28;20037;-52
2024/02/26 10:35:46;;;;;;;3.55;2.60;;;19.20;54.20;;;;;;5010900;28;20545;-52
2024/02/26 10:38:12;;;;;;;3.78;2.63;;;19.20;54.10;;;;;;5011464;28;20038;-50
2024/02/26 10:40:37;;;;;;;5.82;3.42;;;19.30;54.20;;;;;;5009821;28;20629;-50
2024/02/26 10:43:03;;;;;;;3.85;2.65;;;19.30;54.10;;;;;;5014096;28;20044;-50
2024/02/26 10:45:29;;;;;;;3.28;2.60;;;19.30;54.10;;;;;;5009901;28;20104;-50
2024/02/26 10:47:54;;;;;;;3.35;2.90;;;19.30;54.10;;;;;;5013059;28;20105;-52
2024/02/26 10:50:20;;;;;;;5.78;3.33;;;19.30;54.00;;;;;;5009007;28;20014;-51
2024/02/26 10:52:45;;;;;;;5.03;2.65;;;19.40;54.00;;;;;;5002713;28;20092;-51
2024/02/26 10:55:19;;;;;;;3.97;2.90;;;19.40;54.10;;;;;;5008620;28;20065;-50
2024/02/26 10:57:45;;;;;;;3.20;2.78;;;19.50;54.20;;;;;;5011580;28;20026;-58
2024/02/26 11:00:15;;;;;;;4.25;3.15;;;19.50;54.10;;;;;;4992708;28;20029;-50
2024/02/26 11:02:41;;;;;;;3.65;2.40;;;19.50;54.10;;;;;;5009906;28;20118;-50
2024/02/26 11:05:07;;;;;;;3.22;2.55;;;19.60;54.10;;;;;;5008732;28;20065;-50
2024/02/26 11:07:35;;;;;;;2.85;2.55;;;19.60;54.20;;;;;;5012471;28;20026;-50
2024/02/26 11:10:02;;;;;;;6.95;2.90;;;19.60;54.10;;;;;;5009126;28;20030;-50
2024/02/26 11:12:30;;;;;;;4.22;2.80;;;19.60;54.10;;;;;;4998906;28;20577;-50
2024/02/26 11:14:58;;;;;;;4.72;2.63;;;19.70;54.20;;;;;;5011001;28;20033;-49
2024/02/26 11:17:26;;;;;;;5.75;2.60;;;19.70;54.10;;;;;;5011892;28;20026;-51
2024/02/26 11:19:55;;;;;;;3.47;2.53;;;19.70;54.10;;;;;;5009714;28;20117;-49
2024/02/26 11:22:21;;;;;;;5.10;3.05;;;19.70;54.00;;;;;;5015669;28;20045;-51
2024/02/26 11:24:48;;;;;;;2.50;2.30;;;19.70;54.70;;;;;;5009806;28;20116;-50
2024/02/26 11:27:17;;;;;;;2.72;2.28;;;19.70;54.00;;;;;;5012699;28;20030;-51
2024/02/26 11:29:51;;;;;;;4.43;2.30;;;19.80;54.00;;;;;;5011025;28;20415;-51
2024/02/26 11:32:17;;;;;;;5.78;2.70;;;19.80;54.00;;;;;;5014485;28;20073;-51
2024/02/26 11:34:43;;;;;;;4.28;2.45;;;19.80;54.00;;;;;;5014015;28;20383;-49
2024/02/26 11:37:13;;;;;;;3.60;2.65;;;19.80;54.10;;;;;;5015286;28;20088;-50
2024/02/26 11:39:44;;;;;;;3.33;2.63;;;19.80;54.10;;;;;;5008766;28;20022;-52
2024/02/26 11:42:13;;;;;;;4.18;2.40;;;19.70;54.10;;;;;;5012844;28;20033;-50
2024/02/26 11:44:38;;;;;;;4.50;2.60;;;19.80;54.10;;;;;;5008218;28;20052;-48
2024/02/26 11:47:21;;;;;;;6.85;2.53;;;19.70;54.10;;;;;;5019062;28;20732;-51
2024/02/26 11:49:47;;;;;;;3.00;2.20;;;19.70;54.20;;;;;;5017367;28;20037;-51
2024/02/26 11:52:14;;;;;;;4.07;2.55;;;19.70;54.30;;;;;;5019221;28;21010;-52
2024/02/26 11:54:48;;;;;;;3.00;2.05;;;19.70;54.30;;;;;;5006114;28;20129;-50
2024/02/26 11:57:40;;;;;;;2.75;2.00;;;19.70;54.40;;;;;;4989495;28;20531;-48
2024/02/26 12:00:16;;;;;;;2.55;2.08;;;19.70;54.50;;;;;;5008428;28;20080;-49
2024/02/26 12:02:46;;;;;;;2.97;1.80;;;19.70;54.50;;;;;;4994199;28;20115;-52
2024/02/26 12:05:17;;;;;;;2.53;2.10;;;19.60;54.50;;;;;;4997304;28;20044;-48
2024/02/26 12:07:49;;;;;;;5.05;2.58;;;19.60;54.50;;;;;;5003528;28;20076;-50
2024/02/26 12:10:28;;;;;;;3.80;2.10;;;19.60;54.60;;;;;;4992489;28;20577;-56
2024/02/26 12:13:01;;;;;;;2.80;2.20;;;19.60;54.50;;;;;;5003007;28;20581;-51
2024/02/26 12:15:35;;;;;;;5.10;2.50;;;19.60;54.60;;;;;;5005790;28;20109;-50
2024/02/26 12:18:03;;;;;;;4.60;2.20;;;19.60;54.60;;;;;;5004315;28;20060;-51
2024/02/26 12:20:28;;;;;;;4.00;2.00;;;19.50;54.60;;;;;;5001549;28;20227;-49
2024/02/26 12:22:55;;;;;;;3.10;2.35;;;19.60;54.60;;;;;;5003037;28;20861;-51
2024/02/26 12:25:28;;;;;;;3.50;2.35;;;19.50;54.50;;;;;;5005130;28;20049;-53
2024/02/26 12:27:55;;;;;;;3.47;2.60;;;19.50;54.50;;;;;;5006115;28;20033;-52
2024/02/26 12:30:21;;;;;;;2.70;1.95;;;19.50;54.50;;;;;;5005318;28;20672;-48
2024/02/26 12:32:48;;;;;;;3.80;2.20;;;19.50;54.50;;;;;;5008220;28;20041;-53
2024/02/26 12:35:14;;;;;;;3.55;2.42;;;19.50;54.50;;;;;;5009426;28;20387;-49
2024/02/26 12:37:40;;;;;;;2.35;2.15;;;19.50;54.60;;;;;;5006880;28;20112;-49
2024/02/26 12:40:08;;;;;;;3.53;2.35;;;19.60;54.60;;;;;;5011594;28;20225;-47
2024/02/26 12:42:39;;;;;;;2.80;1.98;;;19.50;54.60;;;;;;5015862;28;20079;-49